Time;durP1;ratioP1;P1;durP2;ratioP2;P2;SDS_P1;SDS_P2;PMS_P1;PMS_P2;Temp;Humidity;BMP_temperature;BMP_pressure;BME280_temperature;BME280_humidity;BME280_pressure;Samples;Min_cycle;Max_cycle;Signal;HPM_P1;HPM_P2
2023/05/13 00:00:12;;;;;;;7.68;3.85;;;14.50;99.90;;;;;;7404517;19;19918;-76
2023/05/13 00:02:41;;;;;;;5.88;4.20;;;14.40;99.90;;;;;;7402392;19;19914;-78
2023/05/13 00:05:10;;;;;;;7.05;3.97;;;14.30;99.90;;;;;;7404923;19;19974;-77
2023/05/13 00:07:40;;;;;;;8.60;4.22;;;14.40;99.90;;;;;;7403028;19;19910;-77
2023/05/13 00:10:10;;;;;;;9.38;4.38;;;14.30;99.90;;;;;;7404936;19;19939;-77
2023/05/13 00:12:42;;;;;;;5.13;3.88;;;14.20;99.90;;;;;;7404092;19;19931;-77
2023/05/13 00:15:12;;;;;;;6.55;3.80;;;14.40;99.90;;;;;;7405097;19;19911;-76
2023/05/13 00:17:42;;;;;;;5.20;3.72;;;14.20;99.90;;;;;;7403774;19;19931;-76
2023/05/13 00:20:11;;;;;;;7.70;4.20;;;14.00;99.90;;;;;;7402524;19;19994;-75
2023/05/13 00:22:40;;;;;;;4.88;4.10;;;14.00;99.90;;;;;;7403266;19;19985;-76
2023/05/13 00:25:10;;;;;;;6.22;3.47;;;14.10;99.90;;;;;;7402272;19;19991;-76
2023/05/13 00:27:41;;;;;;;7.38;4.10;;;14.00;99.90;;;;;;7402755;19;19915;-77
2023/05/13 00:30:11;;;;;;;7.35;4.43;;;14.10;99.90;;;;;;7402452;19;20340;-77
2023/05/13 00:32:43;;;;;;;6.85;3.92;;;14.00;99.90;;;;;;7400239;19;19922;-77
2023/05/13 00:35:12;;;;;;;6.38;4.05;;;14.00;99.90;;;;;;7402306;19;19931;-77
2023/05/13 00:37:41;;;;;;;7.40;4.00;;;13.90;99.90;;;;;;7401514;19;20401;-77
2023/05/13 00:40:20;;;;;;;7.65;4.03;;;14.00;99.90;;;;;;7402924;19;19935;-76
2023/05/13 00:42:53;;;;;;;8.75;4.47;;;13.90;99.90;;;;;;7403615;19;19922;-76
2023/05/13 00:45:22;;;;;;;6.07;4.43;;;13.80;99.90;;;;;;7403884;19;20938;-76
2023/05/13 00:47:51;;;;;;;4.47;3.63;;;13.60;99.90;;;;;;7401844;19;19919;-77
2023/05/13 00:50:20;;;;;;;8.27;4.25;;;13.70;99.90;;;;;;7403143;19;19907;-77
2023/05/13 00:52:51;;;;;;;7.70;4.20;;;13.70;99.90;;;;;;7402736;19;20356;-77
2023/05/13 00:55:20;;;;;;;6.78;4.32;;;13.60;99.90;;;;;;7403153;19;19918;-77
2023/05/13 00:57:51;;;;;;;9.68;4.55;;;13.70;99.90;;;;;;7401344;19;19933;-77
2023/05/13 01:00:21;;;;;;;5.60;3.88;;;13.70;99.90;;;;;;7403317;19;19919;-76
2023/05/13 01:02:55;;;;;;;6.30;4.30;;;13.80;99.90;;;;;;7399305;19;19919;-77
2023/05/13 01:05:33;;;;;;;6.20;4.03;;;13.50;99.90;;;;;;7404171;19;20447;-75
2023/05/13 01:08:06;;;;;;;9.23;4.65;;;13.60;99.90;;;;;;7400229;19;19918;-78
2023/05/13 01:10:42;;;;;;;6.22;4.20;;;13.50;99.90;;;;;;7402580;19;19942;-76
2023/05/13 01:13:18;;;;;;;8.25;4.32;;;13.60;99.90;;;;;;7403050;19;19918;-76
2023/05/13 01:16:05;;;;;;;9.05;4.30;;;13.40;99.90;;;;;;7401490;19;19919;-77
2023/05/13 01:18:38;;;;;;;7.07;4.53;;;13.40;99.90;;;;;;7403334;19;19940;-76
2023/05/13 01:21:08;;;;;;;6.65;4.80;;;13.40;99.90;;;;;;7402343;19;20256;-76
2023/05/13 01:23:39;;;;;;;9.30;4.90;;;13.30;99.90;;;;;;7400258;19;19922;-76
2023/05/13 01:26:08;;;;;;;12.50;4.57;;;13.40;99.90;;;;;;7402043;19;19970;-76
2023/05/13 01:28:37;;;;;;;5.45;3.90;;;13.50;99.90;;;;;;7399262;19;19966;-77
2023/05/13 01:31:09;;;;;;;6.88;3.95;;;13.30;99.90;;;;;;7401864;19;19919;-77
2023/05/13 01:33:39;;;;;;;6.05;4.28;;;13.40;99.90;;;;;;7400927;19;20354;-76
2023/05/13 01:36:09;;;;;;;6.85;4.82;;;13.20;99.90;;;;;;7402109;19;19915;-77
2023/05/13 01:38:42;;;;;;;5.70;4.10;;;13.10;99.90;;;;;;7400939;19;19914;-76
2023/05/13 01:41:11;;;;;;;6.63;4.90;;;13.20;99.90;;;;;;7403253;19;19910;-78
2023/05/13 01:43:40;;;;;;;7.47;4.70;;;13.20;99.90;;;;;;7399948;19;19922;-77
2023/05/13 01:46:14;;;;;;;7.00;4.22;;;13.20;99.90;;;;;;7400080;19;19942;-78
2023/05/13 01:48:43;;;;;;;7.68;5.15;;;13.10;99.90;;;;;;7402808;19;20014;-78
2023/05/13 01:51:12;;;;;;;7.22;5.25;;;13.20;99.90;;;;;;7406608;19;19922;-76
2023/05/13 01:53:43;;;;;;;9.65;4.43;;;13.20;99.90;;;;;;7408610;19;20348;-76
2023/05/13 01:56:12;;;;;;;7.85;5.30;;;13.10;99.90;;;;;;7406614;19;20273;-77
2023/05/13 01:58:41;;;;;;;9.23;4.80;;;13.20;99.90;;;;;;7407862;19;20363;-77
2023/05/13 02:01:10;;;;;;;6.55;4.85;;;13.10;99.90;;;;;;7408008;19;19917;-76
2023/05/13 02:03:39;;;;;;;10.35;4.97;;;12.90;99.90;;;;;;7406673;19;19932;-76
2023/05/13 02:06:08;;;;;;;6.97;4.47;;;13.00;99.90;;;;;;7406838;19;20554;-77
2023/05/13 02:08:37;;;;;;;7.43;4.80;;;13.00;99.90;;;;;;7408159;19;19923;-77
2023/05/13 02:11:09;;;;;;;7.82;5.35;;;12.90;99.90;;;;;;7407425;19;20002;-77
2023/05/13 02:13:38;;;;;;;7.15;4.97;;;12.90;99.90;;;;;;7409450;19;19927;-78
2023/05/13 02:16:07;;;;;;;7.40;5.18;;;12.90;99.90;;;;;;7407684;19;19978;-77
2023/05/13 02:18:37;;;;;;;10.50;6.10;;;13.10;99.90;;;;;;7409718;19;20692;-78
2023/05/13 02:21:06;;;;;;;8.30;5.78;;;12.90;99.90;;;;;;7405632;19;19982;-77
2023/05/13 02:23:35;;;;;;;10.07;5.28;;;12.90;99.90;;;;;;7404346;19;19914;-78
2023/05/13 02:26:04;;;;;;;6.38;5.20;;;12.80;99.90;;;;;;7407028;19;19918;-78
2023/05/13 02:28:36;;;;;;;7.80;6.10;;;12.90;99.90;;;;;;7402911;19;19966;-78
2023/05/13 02:31:05;;;;;;;8.02;5.25;;;12.70;99.90;;;;;;7407210;19;20255;-77
2023/05/13 02:33:34;;;;;;;10.27;6.30;;;12.70;99.90;;;;;;7405646;19;20466;-78
2023/05/13 02:36:03;;;;;;;8.25;6.05;;;12.70;99.90;;;;;;7407270;19;19918;-78
2023/05/13 02:38:32;;;;;;;8.88;6.88;;;12.80;99.90;;;;;;7405989;19;19989;-79
2023/05/13 02:41:01;;;;;;;8.50;6.50;;;12.60;99.90;;;;;;7406982;19;19978;-78
2023/05/13 02:43:30;;;;;;;11.18;7.38;;;12.70;99.90;;;;;;7404687;19;19919;-78
2023/05/13 02:46:02;;;;;;;8.15;6.20;;;12.70;99.90;;;;;;7406854;19;19932;-78
2023/05/13 02:48:31;;;;;;;10.32;7.40;;;12.70;99.90;;;;;;7405664;19;19943;-77
2023/05/13 02:51:00;;;;;;;10.23;7.47;;;12.50;99.90;;;;;;7407080;19;19979;-78
2023/05/13 02:53:29;;;;;;;12.15;7.57;;;12.50;99.90;;;;;;7406257;19;20318;-78
2023/05/13 02:55:58;;;;;;;10.65;7.45;;;12.50;99.90;;;;;;7404325;19;19915;-78
2023/05/13 02:58:27;;;;;;;12.27;8.35;;;12.40;99.90;;;;;;7405236;19;19915;-76
2023/05/13 03:00:56;;;;;;;11.52;7.75;;;12.50;99.90;;;;;;7402355;19;19922;-77
2023/05/13 03:03:28;;;;;;;10.98;7.88;;;12.20;99.90;;;;;;7405149;19;19982;-77
2023/05/13 03:05:56;;;;;;;13.45;7.93;;;12.50;99.90;;;;;;7404983;19;19978;-76
2023/05/13 03:08:26;;;;;;;15.77;8.63;;;12.50;99.90;;;;;;7406188;19;19936;-76
2023/05/13 03:10:54;;;;;;;11.82;7.35;;;12.60;99.90;;;;;;7403294;19;19926;-77
2023/05/13 03:13:23;;;;;;;12.35;8.30;;;12.30;99.90;;;;;;7406272;19;19926;-77
2023/05/13 03:15:52;;;;;;;13.50;8.02;;;12.40;99.90;;;;;;7404847;19;19930;-77
2023/05/13 03:18:21;;;;;;;12.57;8.00;;;12.30;99.90;;;;;;7406027;19;20649;-77
2023/05/13 03:20:54;;;;;;;10.88;7.68;;;12.40;99.90;;;;;;7404837;19;19925;-77
2023/05/13 03:23:23;;;;;;;11.65;8.15;;;12.30;99.90;;;;;;7405844;19;20014;-77
2023/05/13 03:25:52;;;;;;;11.10;7.95;;;12.10;99.90;;;;;;7405178;19;19915;-77
2023/05/13 03:28:21;;;;;;;14.65;8.40;;;12.20;99.90;;;;;;7398716;19;19986;-77
2023/05/13 03:30:50;;;;;;;13.23;7.93;;;12.10;99.90;;;;;;7405069;19;19929;-77
2023/05/13 03:33:19;;;;;;;13.40;8.07;;;12.00;99.90;;;;;;7402858;19;19983;-76
2023/05/13 03:35:48;;;;;;;11.60;8.43;;;12.20;99.90;;;;;;7405238;19;19918;-76
2023/05/13 03:38:20;;;;;;;9.95;8.05;;;12.10;99.90;;;;;;7403127;19;20344;-77
2023/05/13 03:40:49;;;;;;;11.50;7.30;;;12.20;99.90;;;;;;7404984;19;19964;-77
2023/05/13 03:43:18;;;;;;;13.45;8.18;;;12.20;99.90;;;;;;7404581;19;20348;-76
2023/05/13 03:45:49;;;;;;;10.40;7.32;;;12.30;99.90;;;;;;7404654;19;19957;-76
2023/05/13 03:48:18;;;;;;;12.07;7.15;;;12.10;99.90;;;;;;7404102;19;20344;-77
2023/05/13 03:50:47;;;;;;;10.60;7.47;;;12.20;99.90;;;;;;7404813;19;20307;-77
2023/05/13 03:53:19;;;;;;;10.25;7.28;;;12.20;99.90;;;;;;7403840;19;19918;-77
2023/05/13 03:55:48;;;;;;;14.93;7.28;;;12.10;99.90;;;;;;7405378;19;19974;-77
2023/05/13 03:58:20;;;;;;;11.90;7.15;;;12.00;99.90;;;;;;7403250;19;19925;-77
2023/05/13 04:00:49;;;;;;;11.30;7.20;;;12.00;99.90;;;;;;7401954;19;19934;-77
2023/05/13 04:03:18;;;;;;;11.13;6.93;;;12.30;99.90;;;;;;7403452;19;20245;-78
2023/05/13 04:05:48;;;;;;;14.68;7.72;;;12.00;99.90;;;;;;7400550;19;20330;-77
2023/05/13 04:08:20;;;;;;;10.88;7.70;;;12.00;99.90;;;;;;7404547;19;19922;-76
2023/05/13 04:10:48;;;;;;;10.23;7.47;;;11.90;99.90;;;;;;7402949;19;19922;-77
2023/05/13 04:13:17;;;;;;;9.23;6.47;;;12.20;99.90;;;;;;7404239;19;20382;-77
2023/05/13 04:15:46;;;;;;;13.45;7.35;;;12.00;99.90;;;;;;7403113;19;19958;-77
2023/05/13 04:18:15;;;;;;;12.57;6.63;;;12.00;99.90;;;;;;7403221;19;19923;-78
2023/05/13 04:20:44;;;;;;;11.50;7.47;;;12.00;99.90;;;;;;7403264;19;19930;-77
2023/05/13 04:23:14;;;;;;;10.85;7.53;;;12.00;99.90;;;;;;7405214;19;19925;-77
2023/05/13 04:25:51;;;;;;;8.32;6.55;;;11.90;99.90;;;;;;7401461;19;20348;-76
2023/05/13 04:28:20;;;;;;;12.10;7.25;;;12.00;99.90;;;;;;7399895;19;19925;-77
2023/05/13 04:30:49;;;;;;;11.27;6.50;;;11.90;99.90;;;;;;7402895;19;19922;-77
2023/05/13 04:33:18;;;;;;;10.85;7.30;;;12.00;99.90;;;;;;7402291;19;19950;-76
2023/05/13 04:35:47;;;;;;;12.00;7.80;;;12.00;99.90;;;;;;7403534;19;20670;-77
2023/05/13 04:38:16;;;;;;;8.10;6.72;;;12.00;99.90;;;;;;7401798;19;20332;-77
2023/05/13 04:40:48;;;;;;;12.63;7.65;;;12.00;99.90;;;;;;7403423;19;19946;-77
2023/05/13 04:43:17;;;;;;;11.85;7.15;;;11.90;99.90;;;;;;7403237;19;20268;-77
2023/05/13 04:45:48;;;;;;;7.60;6.45;;;14.20;99.90;;;;;;7402115;19;19915;-78
2023/05/13 04:48:17;;;;;;;10.13;7.10;;;12.00;99.90;;;;;;7402369;19;19921;-77
2023/05/13 04:50:49;;;;;;;11.48;7.20;;;11.90;99.90;;;;;;7403515;19;19938;-77
2023/05/13 04:53:18;;;;;;;9.35;6.60;;;12.00;99.90;;;;;;7403018;19;19926;-77
2023/05/13 04:55:56;;;;;;;9.10;6.53;;;12.10;99.90;;;;;;7401969;19;19942;-77
2023/05/13 04:58:24;;;;;;;9.73;7.10;;;12.00;99.90;;;;;;7407819;19;19922;-77
2023/05/13 05:00:53;;;;;;;11.77;6.55;;;12.10;99.90;;;;;;7402437;19;19979;-77
2023/05/13 05:03:22;;;;;;;13.60;7.50;;;11.90;99.90;;;;;;7399709;19;19970;-79
2023/05/13 05:05:51;;;;;;;11.75;7.68;;;12.00;99.90;;;;;;7399787;19;19939;-78
2023/05/13 05:08:20;;;;;;;14.75;7.68;;;12.20;99.90;;;;;;7402998;19;19919;-78
2023/05/13 05:10:52;;;;;;;13.20;7.70;;;12.10;99.90;;;;;;7401015;19;20002;-77
2023/05/13 05:13:21;;;;;;;;;;;12.00;99.90;;;;;;7405410;19;19931;-77
2023/05/13 05:15:50;;;;;;;13.55;7.57;;;12.20;99.90;;;;;;7402509;19;19942;-78
2023/05/13 05:18:19;;;;;;;9.35;6.95;;;12.10;99.90;;;;;;7403425;19;20392;-78
2023/05/13 05:20:48;;;;;;;12.00;7.38;;;12.10;99.90;;;;;;7401556;19;19918;-78
2023/05/13 05:23:17;;;;;;;11.50;7.70;;;12.10;99.90;;;;;;7402620;19;19922;-78
2023/05/13 05:25:47;;;;;;;11.43;7.78;;;12.20;99.90;;;;;;7399972;19;19918;-78
2023/05/13 05:28:18;;;;;;;13.23;8.55;;;12.30;99.90;;;;;;7399553;19;19925;-78
2023/05/13 05:30:47;;;;;;;13.23;8.18;;;12.30;99.90;;;;;;7402191;19;19918;-78
2023/05/13 05:33:16;;;;;;;11.20;8.10;;;12.30;99.90;;;;;;7400455;19;20609;-78
2023/05/13 05:35:46;;;;;;;18.52;8.77;;;12.20;99.90;;;;;;7402076;19;19918;-78
2023/05/13 05:38:14;;;;;;;11.48;8.00;;;12.30;99.90;;;;;;7401217;19;19922;-78
2023/05/13 05:40:45;;;;;;;12.00;7.85;;;12.40;99.90;;;;;;7401425;19;20271;-78
2023/05/13 05:43:15;;;;;;;14.65;7.75;;;12.50;99.90;;;;;;7400092;19;19922;-78
2023/05/13 05:45:47;;;;;;;14.90;8.50;;;12.40;99.90;;;;;;7401448;19;19924;-78
2023/05/13 05:48:16;;;;;;;10.57;7.30;;;12.60;99.90;;;;;;7401117;19;19978;-78
2023/05/13 05:50:45;;;;;;;11.23;6.72;;;12.30;99.90;;;;;;7402589;19;19906;-78
2023/05/13 05:53:14;;;;;;;12.45;7.05;;;12.60;99.90;;;;;;7400757;19;19919;-77
2023/05/13 05:55:43;;;;;;;14.35;7.13;;;12.50;99.90;;;;;;7402548;19;19932;-78
2023/05/13 05:58:16;;;;;;;10.15;7.20;;;12.60;99.90;;;;;;7400852;19;19925;-78
2023/05/13 06:00:47;;;;;;;16.52;7.30;;;12.40;99.90;;;;;;7399225;19;20025;-78
2023/05/13 06:03:16;;;;;;;11.40;6.95;;;12.60;99.90;;;;;;7398463;19;19918;-78
2023/05/13 06:05:45;;;;;;;11.30;7.28;;;12.50;99.90;;;;;;7397930;19;20349;-78
2023/05/13 06:08:19;;;;;;;11.25;7.18;;;12.70;99.90;;;;;;7401115;19;19978;-77
2023/05/13 06:10:48;;;;;;;11.32;6.72;;;12.70;99.90;;;;;;7400445;19;20669;-77
2023/05/13 06:13:17;;;;;;;11.05;6.78;;;12.70;99.90;;;;;;7401022;19;19919;-77
2023/05/13 06:15:49;;;;;;;8.68;6.57;;;12.70;99.90;;;;;;7401191;19;19922;-77
2023/05/13 06:18:18;;;;;;;10.82;7.05;;;12.70;99.90;;;;;;7400786;19;19923;-77
2023/05/13 06:20:47;;;;;;;16.17;7.80;;;12.70;99.90;;;;;;7399738;19;19914;-78
2023/05/13 06:23:16;;;;;;;11.43;7.20;;;12.70;99.90;;;;;;7401052;19;20277;-77
2023/05/13 06:25:46;;;;;;;10.93;6.95;;;13.00;99.90;;;;;;7398762;19;19918;-77
2023/05/13 06:28:15;;;;;;;13.82;7.28;;;12.90;99.90;;;;;;7396117;19;19929;-77
2023/05/13 06:30:45;;;;;;;10.75;7.25;;;12.90;99.90;;;;;;7399856;19;19914;-77
2023/05/13 06:33:17;;;;;;;7.82;6.03;;;12.90;99.90;;;;;;7398382;19;19998;-78
2023/05/13 06:35:48;;;;;;;10.48;6.47;;;12.80;99.90;;;;;;7400960;19;20005;-78
2023/05/13 06:38:17;;;;;;;7.60;6.30;;;13.00;99.90;;;;;;7406463;19;19911;-77
2023/05/13 06:40:46;;;;;;;11.20;6.70;;;13.00;99.90;;;;;;7406205;19;19925;-77
2023/05/13 06:43:16;;;;;;;11.55;6.15;;;13.00;99.90;;;;;;7407180;19;20450;-77
2023/05/13 06:45:45;;;;;;;7.45;5.82;;;13.00;99.90;;;;;;7404904;19;19942;-77
2023/05/13 06:48:18;;;;;;;11.70;6.28;;;13.10;99.90;;;;;;7405523;19;19919;-77
2023/05/13 06:50:48;;;;;;;15.23;6.78;;;13.10;99.90;;;;;;7406800;19;19931;-76
2023/05/13 06:53:17;;;;;;;7.88;5.68;;;13.10;99.90;;;;;;7405762;19;20350;-76
2023/05/13 06:55:46;;;;;;;12.25;6.95;;;13.10;99.90;;;;;;7407978;19;19990;-76
2023/05/13 06:58:15;;;;;;;8.77;6.22;;;13.00;99.90;;;;;;7405682;19;20000;-76
2023/05/13 07:00:45;;;;;;;8.55;6.32;;;11.30;99.90;;;;;;7405126;19;19921;-78
2023/05/13 07:03:17;;;;;;;9.52;6.18;;;13.20;99.90;;;;;;7403165;19;19942;-77
2023/05/13 07:05:46;;;;;;;11.48;6.47;;;13.30;99.90;;;;;;7403614;19;19918;-78
2023/05/13 07:08:16;;;;;;;10.85;7.32;;;13.30;99.90;;;;;;7405547;19;19948;-78
2023/05/13 07:10:46;;;;;;;12.45;7.43;;;13.40;99.90;;;;;;7402801;19;19914;-77
2023/05/13 07:13:16;;;;;;;10.90;6.47;;;13.20;99.90;;;;;;7407160;19;20271;-79
2023/05/13 07:15:46;;;;;;;10.82;5.88;;;13.10;99.90;;;;;;7406898;19;20248;-77
2023/05/13 07:18:17;;;;;;;9.32;6.10;;;13.40;99.90;;;;;;7406983;19;20003;-76
2023/05/13 07:20:46;;;;;;;12.75;6.57;;;13.40;99.90;;;;;;7404617;19;19929;-77
2023/05/13 07:23:15;;;;;;;9.70;6.50;;;13.30;99.90;;;;;;7406602;19;19919;-77
2023/05/13 07:25:44;;;;;;;11.10;6.72;;;13.40;99.90;;;;;;7404177;19;20402;-78
2023/05/13 07:28:14;;;;;;;15.48;6.45;;;13.40;99.90;;;;;;7404048;19;19927;-78
2023/05/13 07:30:43;;;;;;;10.77;6.47;;;13.60;99.90;;;;;;7405683;19;20691;-77
2023/05/13 07:33:12;;;;;;;13.30;6.50;;;13.60;99.90;;;;;;7404532;19;19930;-77
2023/05/13 07:35:44;;;;;;;11.38;6.80;;;13.60;99.90;;;;;;7404810;19;19915;-78
2023/05/13 07:38:13;;;;;;;8.32;6.53;;;13.80;99.90;;;;;;7403267;19;19986;-77
2023/05/13 07:40:42;;;;;;;8.65;6.43;;;13.60;99.90;;;;;;7404995;19;19928;-76
2023/05/13 07:43:12;;;;;;;10.30;6.25;;;13.60;99.90;;;;;;7404159;19;19918;-76
2023/05/13 07:45:41;;;;;;;10.80;6.07;;;13.90;99.90;;;;;;7405061;19;19911;-77
2023/05/13 07:48:11;;;;;;;11.18;6.57;;;14.00;99.90;;;;;;7402937;19;19944;-77
2023/05/13 07:50:40;;;;;;;7.18;5.40;;;13.80;99.90;;;;;;7403995;19;19918;-76
2023/05/13 07:53:12;;;;;;;11.18;7.30;;;13.90;99.90;;;;;;7405036;19;19926;-77
2023/05/13 07:55:41;;;;;;;;;;;13.90;99.90;;;;;;7407812;19;19911;-77
2023/05/13 07:58:13;;;;;;;11.40;6.38;;;14.00;99.90;;;;;;7404260;19;19915;-77
2023/05/13 08:00:42;;;;;;;12.55;7.35;;;14.00;99.90;;;;;;7402475;19;20344;-78
2023/05/13 08:03:11;;;;;;;9.80;6.53;;;14.20;99.90;;;;;;7401270;19;20375;-78
2023/05/13 08:05:40;;;;;;;8.02;6.22;;;14.10;99.90;;;;;;7402088;19;20277;-76
2023/05/13 08:08:12;;;;;;;8.30;6.30;;;14.20;99.90;;;;;;7404329;19;19935;-76
2023/05/13 08:10:41;;;;;;;11.55;6.20;;;14.30;99.90;;;;;;7401850;19;19943;-76
2023/05/13 08:13:10;;;;;;;9.65;6.68;;;14.20;99.90;;;;;;7403355;19;19986;-77
2023/05/13 08:15:40;;;;;;;10.07;5.95;;;14.30;99.90;;;;;;7405066;19;19922;-76
2023/05/13 08:18:08;;;;;;;9.88;5.47;;;14.40;99.90;;;;;;7404234;19;20029;-76
2023/05/13 08:20:37;;;;;;;9.68;5.70;;;14.40;99.90;;;;;;7403227;19;19915;-77
2023/05/13 08:23:06;;;;;;;12.80;5.68;;;14.60;99.90;;;;;;7402699;19;19922;-76
2023/05/13 08:25:38;;;;;;;7.38;4.63;;;14.50;99.90;;;;;;7402268;19;19925;-76
2023/05/13 08:28:07;;;;;;;6.43;5.15;;;14.70;99.90;;;;;;7403007;19;19922;-76
2023/05/13 08:30:39;;;;;;;6.50;4.78;;;14.70;99.90;;;;;;7403081;19;20318;-78
2023/05/13 08:33:08;;;;;;;7.40;5.30;;;14.80;99.90;;;;;;7403515;19;19922;-77
2023/05/13 08:35:37;;;;;;;7.90;4.75;;;14.90;99.90;;;;;;7403481;19;19918;-77
2023/05/13 08:38:06;;;;;;;10.93;4.88;;;15.00;99.90;;;;;;7401581;19;19974;-77
2023/05/13 08:40:38;;;;;;;7.93;4.65;;;15.00;99.90;;;;;;7403893;19;19925;-78
2023/05/13 08:43:08;;;;;;;;;;;15.10;99.90;;;;;;7406080;19;19998;-77
2023/05/13 08:45:39;;;;;;;4.65;3.55;;;15.30;99.90;;;;;;7402603;19;19978;-77
2023/05/13 08:48:09;;;;;;;7.30;4.18;;;15.30;99.90;;;;;;7402180;19;19981;-78
2023/05/13 08:50:38;;;;;;;10.43;4.53;;;15.20;99.90;;;;;;7404223;19;19926;-77
2023/05/13 08:53:09;;;;;;;8.43;4.07;;;15.30;99.90;;;;;;7401936;19;19974;-78
2023/05/13 08:55:41;;;;;;;8.38;3.63;;;15.50;99.90;;;;;;7403650;19;19926;-77
2023/05/13 08:58:10;;;;;;;5.75;3.38;;;15.60;99.90;;;;;;7400998;19;20309;-77
2023/05/13 09:00:40;;;;;;;7.95;3.60;;;15.50;99.90;;;;;;7399224;19;19922;-77
2023/05/13 09:03:09;;;;;;;7.75;3.83;;;15.60;99.90;;;;;;7399193;19;19938;-77
2023/05/13 09:05:38;;;;;;;4.95;3.78;;;15.70;99.90;;;;;;7400857;19;19926;-77
2023/05/13 09:08:11;;;;;;;5.50;3.70;;;15.90;99.90;;;;;;7402678;19;20017;-77
2023/05/13 09:10:46;;;;;;;4.30;3.45;;;15.90;99.90;;;;;;7401463;19;19973;-77
2023/05/13 09:13:15;;;;;;;9.85;3.17;;;16.00;99.90;;;;;;7402679;19;19946;-77
2023/05/13 09:15:45;;;;;;;7.57;4.05;;;16.20;99.90;;;;;;7401110;19;19918;-78
2023/05/13 09:18:17;;;;;;;4.88;3.53;;;16.30;99.90;;;;;;7402636;19;19970;-77
2023/05/13 09:20:46;;;;;;;;;;;16.20;99.90;;;;;;7404294;19;19934;-77
2023/05/13 09:23:16;;;;;;;5.22;3.33;;;16.50;99.90;;;;;;7402495;19;20325;-76
2023/05/13 09:25:48;;;;;;;8.10;3.60;;;16.40;99.90;;;;;;7400329;19;19939;-78
2023/05/13 09:28:17;;;;;;;6.88;2.97;;;16.60;99.90;;;;;;7397607;19;19919;-76
2023/05/13 09:30:56;;;;;;;3.97;3.17;;;16.70;99.90;;;;;;7401837;19;19919;-77
2023/05/13 09:33:32;;;;;;;3.35;2.90;;;16.80;99.90;;;;;;7401039;19;19914;-77
2023/05/13 09:36:01;;;;;;;7.93;3.60;;;17.00;99.90;;;;;;7403338;19;19974;-77
2023/05/13 09:38:33;;;;;;;4.45;3.40;;;17.00;99.90;;;;;;7401790;19;19923;-78
2023/05/13 09:41:05;;;;;;;4.13;2.92;;;17.10;99.90;;;;;;7402727;19;20336;-77
2023/05/13 09:43:35;;;;;;;7.30;3.30;;;17.20;99.90;;;;;;7401814;19;19919;-77
2023/05/13 09:46:06;;;;;;;4.53;2.92;;;17.50;99.90;;;;;;7401580;19;19974;-78
2023/05/13 09:48:36;;;;;;;9.88;3.70;;;17.40;99.90;;;;;;7399337;19;20425;-77
2023/05/13 09:51:06;;;;;;;7.57;2.72;;;17.50;99.90;;;;;;7399888;19;19918;-78
2023/05/13 09:53:35;;;;;;;3.22;2.67;;;17.50;99.90;;;;;;7400720;19;19943;-78
2023/05/13 09:56:11;;;;;;;4.38;2.75;;;17.70;99.90;;;;;;7399514;19;19929;-77
2023/05/13 09:58:41;;;;;;;6.63;2.80;;;17.90;99.90;;;;;;7402961;19;20352;-78
2023/05/13 10:01:10;;;;;;;4.45;2.38;;;17.90;99.90;;;;;;7400715;19;19926;-76
2023/05/13 10:03:39;;;;;;;4.18;2.58;;;18.00;99.90;;;;;;7400935;19;19944;-76
2023/05/13 10:06:08;;;;;;;4.13;2.20;;;18.10;99.90;;;;;;7399883;19;19939;-76
2023/05/13 10:08:38;;;;;;;4.28;2.30;;;18.10;99.90;;;;;;7401181;19;19922;-77
2023/05/13 10:11:11;;;;;;;7.35;2.50;;;18.40;99.90;;;;;;7402614;19;20347;-77
2023/05/13 10:13:41;;;;;;;7.95;2.50;;;18.40;99.90;;;;;;7407547;19;19929;-77
2023/05/13 10:16:11;;;;;;;4.38;2.17;;;18.50;99.90;;;;;;7407064;19;19919;-78
2023/05/13 10:18:40;;;;;;;6.20;2.40;;;18.60;99.90;;;;;;7404756;19;19915;-78
2023/05/13 10:21:09;;;;;;;5.13;2.22;;;18.70;99.90;;;;;;7407101;19;19918;-78
2023/05/13 10:23:38;;;;;;;6.57;2.45;;;18.80;99.90;;;;;;7406128;19;19943;-77
2023/05/13 10:26:11;;;;;;;7.18;2.50;;;19.10;99.90;;;;;;7408436;19;19926;-79
2023/05/13 10:28:41;;;;;;;6.78;2.35;;;19.20;99.90;;;;;;7407927;19;19926;-78
2023/05/13 10:31:11;;;;;;;4.15;1.90;;;19.30;99.90;;;;;;7406266;19;20388;-77
2023/05/13 10:33:41;;;;;;;6.20;2.28;;;19.30;99.90;;;;;;7406095;19;20245;-77
2023/05/13 10:36:43;;;;;;;5.32;2.10;;;19.30;99.90;;;;;;7406908;19;19918;-77
2023/05/13 10:39:41;;;;;;;4.88;2.10;;;19.50;99.90;;;;;;7406791;19;20559;-77
2023/05/13 10:42:44;;;;;;;4.03;2.47;;;19.70;99.90;;;;;;7406068;19;19974;-80
2023/05/13 10:45:13;;;;;;;3.35;2.13;;;19.70;99.90;;;;;;7406882;19;19918;-77
2023/05/13 10:47:42;;;;;;;5.15;2.15;;;19.70;99.90;;;;;;7405690;19;19931;-77
2023/05/13 10:50:25;;;;;;;6.28;2.13;;;19.90;99.90;;;;;;7405928;19;19942;-76
2023/05/13 10:52:58;;;;;;;6.72;2.50;;;19.90;99.90;;;;;;7405419;19;19921;-77
2023/05/13 10:55:29;;;;;;;6.10;2.55;;;20.00;99.90;;;;;;7406155;19;20272;-78
2023/05/13 10:58:13;;;;;;;5.65;2.63;;;20.00;99.90;;;;;;7404338;19;20291;-77
2023/05/13 11:00:44;;;;;;;7.25;2.13;;;20.10;99.90;;;;;;7407072;19;19919;-77
2023/05/13 11:03:30;;;;;;;5.35;2.17;;;20.30;99.90;;;;;;7402745;19;19921;-77
2023/05/13 11:06:15;;;;;;;5.70;2.40;;;20.40;99.90;;;;;;7405328;19;19919;-77
2023/05/13 11:08:46;;;;;;;3.35;2.28;;;20.50;99.90;;;;;;7409163;19;19958;-77
2023/05/13 11:11:25;;;;;;;3.42;2.10;;;20.60;99.90;;;;;;7404064;19;19990;-77
2023/05/13 11:14:04;;;;;;;3.80;2.33;;;20.70;99.90;;;;;;7404521;19;19921;-77
2023/05/13 11:16:33;;;;;;;4.63;2.33;;;20.80;99.90;;;;;;7405951;19;20579;-77
2023/05/13 11:19:04;;;;;;;7.82;2.50;;;20.90;99.90;;;;;;7404793;19;20036;-77
2023/05/13 11:21:34;;;;;;;3.25;2.22;;;20.90;99.90;;;;;;7404527;19;19923;-77
2023/05/13 11:24:05;;;;;;;5.22;2.10;;;20.80;99.90;;;;;;7404561;19;19918;-77
2023/05/13 11:26:47;;;;;;;12.48;2.80;;;21.00;99.90;;;;;;7405104;19;19927;-77
2023/05/13 11:29:33;;;;;;;3.42;2.28;;;21.10;99.90;;;;;;7404466;19;19915;-77
2023/05/13 11:32:04;;;;;;;5.22;2.25;;;21.20;99.90;;;;;;7403155;19;19970;-77
2023/05/13 11:34:35;;;;;;;4.60;2.20;;;21.40;99.90;;;;;;7405644;19;19918;-77
2023/05/13 11:37:11;;;;;;;5.07;2.50;;;21.40;99.90;;;;;;7403731;19;19922;-78
2023/05/13 11:39:42;;;;;;;3.95;2.22;;;21.50;99.90;;;;;;7406318;19;19915;-77
2023/05/13 11:42:12;;;;;;;5.28;2.20;;;21.50;99.90;;;;;;7404435;19;20256;-77
2023/05/13 11:44:49;;;;;;;4.70;2.22;;;21.60;99.90;;;;;;7404145;19;19922;-77
2023/05/13 11:47:28;;;;;;;2.33;1.73;;;22.00;99.90;;;;;;7403810;19;19918;-78
2023/05/13 11:49:57;;;;;;;3.25;2.10;;;21.80;99.90;;;;;;7403449;19;20288;-77
2023/05/13 11:52:28;;;;;;;4.85;2.17;;;21.90;99.90;;;;;;7405331;19;20681;-78
2023/05/13 11:54:59;;;;;;;2.28;1.98;;;22.00;99.90;;;;;;7403812;19;19922;-78
2023/05/13 11:57:31;;;;;;;2.72;1.90;;;22.10;99.90;;;;;;7401735;19;19919;-78
2023/05/13 12:00:05;;;;;;;7.30;2.17;;;22.30;99.90;;;;;;7403514;19;19926;-78
2023/05/13 12:02:36;;;;;;;4.07;2.10;;;22.30;99.90;;;;;;7403803;19;20005;-78
2023/05/13 12:05:06;;;;;;;4.22;1.75;;;22.30;99.90;;;;;;7404808;19;19982;-78
2023/05/13 12:08:00;;;;;;;5.10;1.92;;;22.50;99.90;;;;;;7402308;19;19922;-79
2023/05/13 12:10:29;;;;;;;3.72;1.83;;;22.50;99.90;;;;;;7403039;19;19922;-78
2023/05/13 12:12:59;;;;;;;3.75;2.28;;;22.60;99.90;;;;;;7403748;19;20274;-78
2023/05/13 12:15:31;;;;;;;5.35;2.20;;;22.60;99.90;;;;;;7404432;19;19974;-79
2023/05/13 12:18:00;;;;;;;4.35;2.13;;;22.80;99.90;;;;;;7404057;19;19914;-79
2023/05/13 12:20:29;;;;;;;3.15;1.88;;;22.90;99.90;;;;;;7403116;19;19933;-78
2023/05/13 12:22:59;;;;;;;2.58;1.83;;;22.90;99.90;;;;;;7404535;19;19927;-78
2023/05/13 12:25:45;;;;;;;2.50;1.75;;;22.90;99.90;;;;;;7403668;19;19986;-78
2023/05/13 12:28:18;;;;;;;4.32;2.80;;;23.00;99.90;;;;;;7399942;19;19982;-78
2023/05/13 12:30:55;;;;;;;4.18;1.52;;;23.10;99.90;;;;;;7403158;19;19926;-79
2023/05/13 12:33:27;;;;;;;3.08;2.00;;;23.30;99.90;;;;;;7401750;19;19919;-78
2023/05/13 12:36:17;;;;;;;3.67;2.03;;;23.10;99.70;;;;;;7403062;19;20120;-79
2023/05/13 12:38:59;;;;;;;3.13;2.00;;;23.40;99.90;;;;;;7403390;19;19982;-78
2023/05/13 12:41:30;;;;;;;3.97;1.90;;;23.40;97.90;;;;;;7402074;19;20220;-78
2023/05/13 12:44:03;;;;;;;5.75;2.10;;;23.60;99.50;;;;;;7400811;19;19990;-79
2023/05/13 12:46:35;;;;;;;2.83;1.95;;;23.80;99.40;;;;;;7402726;19;19989;-79
2023/05/13 12:49:06;;;;;;;3.85;2.10;;;23.90;99.30;;;;;;7403965;19;19918;-78
2023/05/13 12:51:35;;;;;;;4.43;2.10;;;24.00;99.00;;;;;;7402730;19;19990;-79
2023/05/13 12:54:04;;;;;;;6.00;2.15;;;24.00;98.80;;;;;;7403726;19;19922;-79
2023/05/13 12:56:33;;;;;;;4.30;2.20;;;24.10;98.70;;;;;;7401702;19;20252;-79
2023/05/13 12:59:02;;;;;;;3.40;2.13;;;24.30;98.60;;;;;;7403117;19;19918;-79
2023/05/13 13:01:33;;;;;;;3.80;1.80;;;24.30;98.10;;;;;;7402037;19;19922;-79